Overview Statistics Trail Chart Weather Telemetry Raw packets
 

This is the latest recevied weather packets stored in our database for station/object DG9VH-13. If no packets are shown the sender has not sent any weather packets the latest 10 day(s).

<< 24 25 26 27 28 29 30 >>
Time Temp. Humidity Pressure Rain* Wind** Luminosity Snow
1788334803 21.11° C 56% 1005.5 hPa - - - -
1788334201 19.44° C 61% 1004.7 hPa - - - -
1788333602 18.89° C 61% 1004.2 hPa - - - -
1788333001 20° C 59% 1004.5 hPa - - - -
1788332400 20° C 60% 1004 hPa - - - -
1788331803 21.67° C 54% 1003.7 hPa - - - -
1788331202 20° C 60% 1003.9 hPa - - - -
1788330603 16.67° C 73% 1002.3 hPa - - - -
1788330002 15.56° C 73% 1003.9 hPa - - - -
1788329403 15.56° C 73% 1004 hPa - - - -
1788328803 16.11° C 72% 1004 hPa - - - -
1788328203 15.56° C 72% 1003.8 hPa - - - -
1788327602 15.56° C 73% 1003.7 hPa - - - -
1788327002 15.56° C 72% 1003.6 hPa - - - -
1788326401 15.56° C 73% 1003.5 hPa - - - -
1788325805 15.56° C 72% 1003.5 hPa - - - -
1788325201 15.56° C 72% 1003.6 hPa - - - -
1788324603 15.56° C 72% 1003.7 hPa - - - -
1788324002 15.56° C 72% 1003.9 hPa - - - -
1788323401 15.56° C 72% 1003.8 hPa - - - -
1788322800 15.56° C 71% 1003.9 hPa - - - -
1788322202 15.56° C 72% 1003.8 hPa - - - -
1788321601 15.56° C 72% 1003.9 hPa - - - -
1788321002 15.56° C 71% 1003.9 hPa - - - -
1788320403 15.56° C 72% 1003.8 hPa - - - -

* Rain since midnight (hover to see other rain measurements)
** Current wind speed in m/s (hover to see current wind gust speed)